createdAt,value
2022-10-10T00:00:54.227Z,96862.34
2022-10-10T00:03:20.820Z,96862.34
2022-10-10T00:05:48.335Z,96859.84
2022-10-10T00:08:15.034Z,96852.31
2022-10-10T00:10:41.787Z,96856.81
2022-10-10T00:13:08.500Z,96851.63
2022-10-10T00:15:35.158Z,96851.94
2022-10-10T00:18:03.296Z,96850.56
2022-10-10T00:20:29.952Z,96856.22
2022-10-10T00:22:56.680Z,96855.84
2022-10-10T00:25:23.394Z,96855.00
2022-10-10T00:27:50.025Z,96846.03
2022-10-10T00:30:16.871Z,96848.81
2022-10-10T00:32:43.592Z,96845.66
2022-10-10T00:35:10.405Z,96853.09
2022-10-10T00:37:37.108Z,96855.09
2022-10-10T00:40:05.193Z,96854.03
2022-10-10T00:42:31.850Z,96853.94
2022-10-10T00:45:20.150Z,96850.91
2022-10-10T00:47:47.911Z,96843.22
2022-10-10T00:50:14.850Z,96843.06
2022-10-10T00:52:41.523Z,96839.72
2022-10-10T00:55:08.428Z,96834.84
2022-10-10T00:57:35.150Z,96831.50
2022-10-10T01:00:04.388Z,96831.28
2022-10-10T01:02:31.132Z,96833.56
2022-10-10T01:04:57.817Z,96830.66
2022-10-10T01:07:28.406Z,96825.50
2022-10-10T01:09:59.113Z,96835.69
2022-10-10T01:12:38.164Z,96836.13
2022-10-10T01:15:10.890Z,96834.47
2022-10-10T01:17:58.988Z,96841.47
2022-10-10T01:20:43.467Z,96831.94
2022-10-10T01:23:43.529Z,96834.94
2022-10-10T01:26:40.584Z,96829.44
2022-10-10T01:29:30.174Z,96830.13
2022-10-10T01:32:04.744Z,96824.28
2022-10-10T01:34:37.271Z,96829.28
2022-10-10T01:37:09.651Z,96829.69
2022-10-10T01:39:57.671Z,96835.69
2022-10-10T01:42:55.365Z,96831.22
2022-10-10T01:45:23.485Z,96824.88
2022-10-10T01:47:50.970Z,96816.06
2022-10-10T01:50:21.736Z,96827.41
2022-10-10T01:53:20.663Z,96820.09
2022-10-10T01:55:47.237Z,96820.78
2022-10-10T01:58:40.987Z,96820.25
2022-10-10T02:01:26.354Z,96819.53
2022-10-10T02:04:31.927Z,96813.94
2022-10-10T02:07:15.037Z,96812.81
2022-10-10T02:09:44.223Z,96813.63
2022-10-10T02:12:13.982Z,96810.13
2022-10-10T02:14:43.801Z,96812.97
2022-10-10T02:17:13.122Z,96812.25
2022-10-10T02:19:44.614Z,96815.75
2022-10-10T02:22:11.588Z,96816.75
2022-10-10T02:24:38.335Z,96810.72
2022-10-10T02:27:19.997Z,96813.53
2022-10-10T02:29:47.974Z,96810.19
2022-10-10T02:32:30.081Z,96813.16
2022-10-10T02:35:02.670Z,96810.66
2022-10-10T02:37:30.785Z,96807.53
2022-10-10T02:40:02.239Z,96803.72
2022-10-10T02:42:30.235Z,96801.91
2022-10-10T02:44:57.696Z,96799.09
2022-10-10T02:47:24.420Z,96798.13
2022-10-10T02:49:51.217Z,96800.06
2022-10-10T02:52:18.217Z,96795.75
2022-10-10T02:54:45.056Z,96799.09
2022-10-10T02:57:12.370Z,96795.28
2022-10-10T02:59:39.080Z,96794.44
2022-10-10T03:02:06.493Z,96806.09
2022-10-10T03:04:34.054Z,96796.59
2022-10-10T03:07:00.698Z,96793.78
2022-10-10T03:09:27.278Z,96792.91
2022-10-10T03:11:53.916Z,96798.25
2022-10-10T03:14:20.630Z,96799.25
2022-10-10T03:16:47.230Z,96800.91
2022-10-10T03:19:13.862Z,96800.63
2022-10-10T03:21:40.515Z,96805.09
2022-10-10T03:24:07.130Z,96804.09
2022-10-10T03:26:34.278Z,96796.28
2022-10-10T03:29:02.803Z,96803.13
2022-10-10T03:31:29.899Z,96799.50
2022-10-10T03:33:56.749Z,96794.16
2022-10-10T03:36:23.685Z,96798.34
2022-10-10T03:38:50.399Z,96799.00
2022-10-10T03:41:17.125Z,96794.50
2022-10-10T03:43:43.810Z,96796.19
2022-10-10T03:46:15.074Z,96792.53
2022-10-10T03:48:42.844Z,96787.38
2022-10-10T03:51:09.808Z,96787.06
2022-10-10T03:53:37.081Z,96783.41
2022-10-10T03:56:04.199Z,96786.09
2022-10-10T03:58:30.881Z,96790.44
2022-10-10T04:01:00.162Z,96790.59
2022-10-10T04:03:28.139Z,96783.56
2022-10-10T04:05:55.316Z,96792.22
2022-10-10T04:08:22.893Z,96783.56
2022-10-10T04:10:53.757Z,96783.41
2022-10-10T04:13:21.602Z,96780.28
2022-10-10T04:15:52.882Z,96776.25
2022-10-10T04:18:19.901Z,96787.06
2022-10-10T04:20:46.708Z,96774.88
2022-10-10T04:23:13.431Z,96780.22
2022-10-10T04:25:40.417Z,96779.94
2022-10-10T04:28:07.089Z,96776.25
2022-10-10T04:30:35.145Z,96775.28
2022-10-10T04:33:01.792Z,96768.97
2022-10-10T04:35:28.708Z,96771.78
2022-10-10T04:37:55.364Z,96772.59
2022-10-10T04:40:26.367Z,96776.09
2022-10-10T04:42:53.736Z,96778.63
2022-10-10T04:45:20.766Z,96782.78
2022-10-10T04:47:47.510Z,96773.97
2022-10-10T04:50:14.151Z,96774.94
2022-10-10T04:52:40.796Z,96768.97
2022-10-10T04:55:07.752Z,96772.44
2022-10-10T04:57:34.386Z,96768.66
2022-10-10T05:00:01.049Z,96774.78
2022-10-10T05:02:27.724Z,96774.13
2022-10-10T05:04:54.371Z,96778.25
2022-10-10T05:07:21.487Z,96769.28
2022-10-10T05:09:48.186Z,96775.13
2022-10-10T05:12:14.800Z,96779.31
2022-10-10T05:14:45.871Z,96772.13
2022-10-10T05:17:14.980Z,96777.34
2022-10-10T05:19:41.628Z,96776.19
2022-10-10T05:22:08.293Z,96779.84
2022-10-10T05:24:35.006Z,96777.84
2022-10-10T05:27:01.648Z,96782.03
2022-10-10T05:29:28.337Z,96774.72
2022-10-10T05:31:54.971Z,96775.56
2022-10-10T05:34:21.679Z,96770.38
2022-10-10T05:36:48.348Z,96774.03
2022-10-10T05:39:15.040Z,96781.19
2022-10-10T05:41:41.714Z,96773.38
2022-10-10T05:44:08.472Z,96774.19
2022-10-10T05:46:35.122Z,96776.69
2022-10-10T05:49:01.793Z,96775.72
2022-10-10T05:51:28.444Z,96778.38
2022-10-10T05:53:55.796Z,96781.03
2022-10-10T05:56:23.417Z,96779.19
2022-10-10T05:58:51.437Z,96784.38
2022-10-10T06:01:18.177Z,96787.72
2022-10-10T06:03:44.870Z,96779.59
2022-10-10T06:06:11.482Z,96782.78
2022-10-10T06:08:38.104Z,96783.28
2022-10-10T06:11:15.997Z,96789.84
2022-10-10T06:13:43.405Z,96788.53
2022-10-10T06:16:10.342Z,96783.88
2022-10-10T06:18:37.280Z,96795.06
2022-10-10T06:21:05.996Z,96792.94
2022-10-10T06:23:34.084Z,96797.94
2022-10-10T06:26:00.750Z,96787.66
2022-10-10T06:28:27.457Z,96793.66
2022-10-10T06:30:54.113Z,96792.06
2022-10-10T06:33:20.818Z,96793.41
2022-10-10T06:35:49.060Z,96792.72
2022-10-10T06:38:16.882Z,96801.91
2022-10-10T06:40:44.243Z,96793.63
2022-10-10T06:43:12.717Z,96791.00
2022-10-10T06:45:44.210Z,96800.84
2022-10-10T06:48:12.765Z,96797.88
2022-10-10T06:50:39.456Z,96797.41
2022-10-10T06:53:06.661Z,96794.88
2022-10-10T06:55:33.306Z,96801.06
2022-10-10T06:57:59.980Z,96793.91
2022-10-10T07:00:26.724Z,96801.56
2022-10-10T07:02:53.785Z,96797.91
2022-10-10T07:05:20.740Z,96804.91
2022-10-10T07:07:47.501Z,96798.59
2022-10-10T07:10:15.767Z,96800.25
2022-10-10T07:12:44.925Z,96797.44
2022-10-10T07:15:12.248Z,96806.50
2022-10-10T07:17:38.921Z,96796.69
2022-10-10T07:20:05.924Z,96797.06
2022-10-10T07:22:33.141Z,96809.25
2022-10-10T07:24:59.844Z,96804.41
2022-10-10T07:31:09.864Z,96810.09
2022-10-10T07:33:46.051Z,96808.59
2022-10-10T07:36:15.727Z,96810.66
2022-10-10T07:38:42.360Z,96811.50
2022-10-10T07:41:12.004Z,96816.19
2022-10-10T07:43:39.399Z,96821.19
2022-10-10T07:46:13.039Z,96818.72
2022-10-10T07:48:40.128Z,96812.22
2022-10-10T07:51:07.810Z,96804.38
2022-10-10T07:53:34.572Z,96808.38
2022-10-10T07:56:04.403Z,96805.56
2022-10-10T07:58:31.077Z,96816.22
2022-10-10T08:01:10.125Z,96806.34
2022-10-10T08:03:36.966Z,96821.22
2022-10-10T08:06:09.353Z,96815.41
2022-10-10T08:08:43.787Z,96809.19
2022-10-10T08:11:17.539Z,96817.72
2022-10-10T08:13:44.218Z,96817.22
2022-10-10T08:16:10.908Z,96813.56
2022-10-10T08:18:37.768Z,96812.91
2022-10-10T08:21:07.073Z,96803.91
2022-10-10T08:23:34.042Z,96811.25
2022-10-10T08:26:07.331Z,96804.25
2022-10-10T08:28:35.127Z,96801.06
2022-10-10T08:31:09.555Z,96803.22
2022-10-10T08:33:36.506Z,96794.22
2022-10-10T08:36:10.486Z,96788.84
2022-10-10T08:38:37.515Z,96790.50
2022-10-10T08:41:10.398Z,96798.28
2022-10-10T08:43:44.686Z,96786.69
2022-10-10T08:46:20.854Z,96782.28
2022-10-10T08:48:50.836Z,96788.19
2022-10-10T08:51:32.686Z,96789.88
2022-10-10T08:54:04.222Z,96782.22
2022-10-10T08:56:33.220Z,96784.53
2022-10-10T08:59:28.186Z,96783.38
2022-10-10T09:02:19.201Z,96775.09
2022-10-10T09:04:48.172Z,96781.00
2022-10-10T09:07:31.932Z,96776.13
2022-10-10T09:10:22.985Z,96766.41
2022-10-10T09:13:20.798Z,96765.66
2022-10-10T09:16:04.283Z,96772.22
2022-10-10T09:19:24.367Z,96773.72
2022-10-10T09:21:56.625Z,96766.50
2022-10-10T09:24:46.628Z,96764.34
2022-10-10T09:27:20.346Z,96757.38
2022-10-10T09:30:18.242Z,96761.69
2022-10-10T09:32:47.301Z,96757.06
2022-10-10T09:35:20.567Z,96756.78
2022-10-10T09:37:51.259Z,96747.63
2022-10-10T09:40:26.680Z,96748.72
2022-10-10T09:42:53.693Z,96750.97
2022-10-10T09:45:23.020Z,96740.91
2022-10-10T09:47:54.303Z,96740.25
2022-10-10T09:50:21.886Z,96729.66
2022-10-10T09:52:49.600Z,96720.66
2022-10-10T09:55:27.152Z,96720.66
2022-10-10T09:57:56.858Z,96721.06
2022-10-10T10:00:36.214Z,96719.47
2022-10-10T10:03:13.184Z,96727.69
2022-10-10T10:05:43.723Z,96720.91
2022-10-10T10:08:25.920Z,96726.22
2022-10-10T10:10:52.937Z,96712.28
2022-10-10T10:13:25.330Z,96714.63
2022-10-10T10:16:02.384Z,96710.75
2022-10-10T10:18:30.745Z,96709.50
2022-10-10T10:21:03.438Z,96710.00
2022-10-10T10:23:36.040Z,96705.38
2022-10-10T10:26:06.582Z,96702.63
2022-10-10T10:28:42.974Z,96706.34
2022-10-10T10:31:44.831Z,96701.00
2022-10-10T10:34:17.427Z,96697.22
2022-10-10T10:36:58.358Z,96697.19
2022-10-10T10:39:47.845Z,96691.97
2022-10-10T10:42:36.095Z,96697.97
2022-10-10T10:45:25.926Z,96691.63
2022-10-10T10:48:20.782Z,96688.03
2022-10-10T10:50:54.419Z,96691.66
2022-10-10T10:53:30.674Z,96684.94
2022-10-10T10:56:03.491Z,96677.78
2022-10-10T10:59:10.398Z,96689.97
2022-10-10T11:01:56.751Z,96679.00
2022-10-10T11:05:21.946Z,96669.28
2022-10-10T11:07:58.257Z,96666.84
2022-10-10T11:10:27.980Z,96670.56
2022-10-10T11:13:16.369Z,96673.69
2022-10-10T11:16:24.273Z,96666.66
2022-10-10T11:18:50.993Z,96663.47
2022-10-10T11:21:23.350Z,96652.56
2022-10-10T11:24:02.963Z,96653.84
2022-10-10T11:26:38.687Z,96644.63
2022-10-10T11:29:12.419Z,96641.41
2022-10-10T11:31:52.449Z,96640.75
2022-10-10T11:34:25.132Z,96635.78
2022-10-10T11:36:56.329Z,96635.16
2022-10-10T11:39:47.780Z,96637.25
2022-10-10T11:42:32.945Z,96638.47
2022-10-10T11:45:02.902Z,96629.41
2022-10-10T11:47:40.189Z,96627.72
2022-10-10T11:50:22.120Z,96628.53
2022-10-10T11:53:05.449Z,96627.88
2022-10-10T11:55:55.422Z,96621.78
2022-10-10T11:58:43.997Z,96616.34
2022-10-10T12:01:28.341Z,96623.00
2022-10-10T12:03:57.320Z,96613.63
2022-10-10T12:06:29.300Z,96607.59
2022-10-10T12:09:08.644Z,96597.81
2022-10-10T12:11:42.354Z,96598.84
2022-10-10T12:14:13.948Z,96602.25
2022-10-10T12:16:40.825Z,96608.31
2022-10-10T12:19:25.084Z,96602.31
2022-10-10T12:22:05.027Z,96602.72
2022-10-10T12:25:16.100Z,96598.13
2022-10-10T12:28:01.196Z,96588.44
2022-10-10T12:30:28.400Z,96586.19
2022-10-10T12:32:55.611Z,96577.19
2022-10-10T12:35:31.026Z,96579.44
2022-10-10T12:38:12.820Z,96571.78
2022-10-10T12:41:15.368Z,96567.44
2022-10-10T12:44:11.121Z,96567.00
2022-10-10T12:46:37.830Z,96573.22
2022-10-10T12:49:20.043Z,96566.78
2022-10-10T12:52:11.314Z,96566.00
2022-10-10T12:54:44.043Z,96561.22
2022-10-10T12:57:33.814Z,96557.66
2022-10-10T13:00:21.152Z,96562.97
2022-10-10T13:03:03.187Z,96564.41
2022-10-10T13:05:35.065Z,96558.00
2022-10-10T13:08:11.399Z,96562.94
2022-10-10T13:10:38.036Z,96555.50
2022-10-10T13:13:18.988Z,96552.63
2022-10-10T13:15:53.438Z,96549.94
2022-10-10T13:18:56.788Z,96541.25
2022-10-10T13:21:32.264Z,96548.69
2022-10-10T13:24:03.751Z,96539.19
2022-10-10T13:26:37.642Z,96546.00
2022-10-10T13:29:27.214Z,96542.81
2022-10-10T13:31:58.408Z,96534.75
2022-10-10T13:34:29.735Z,96532.75
2022-10-10T13:36:58.802Z,96539.91
2022-10-10T13:39:27.349Z,96535.34
2022-10-10T13:41:55.341Z,96534.31
2022-10-10T13:44:25.106Z,96535.91
2022-10-10T13:46:52.366Z,96535.88
2022-10-10T13:49:28.307Z,96528.41
2022-10-10T13:52:04.547Z,96529.38
2022-10-10T13:54:46.300Z,96530.19
2022-10-10T13:57:19.351Z,96529.31
2022-10-10T13:59:49.270Z,96530.34
2022-10-10T14:02:19.151Z,96524.94
2022-10-10T14:04:52.864Z,96529.84
2022-10-10T14:07:24.176Z,96526.56
2022-10-10T14:09:55.626Z,96522.63
2022-10-10T14:12:36.036Z,96523.97
2022-10-10T14:15:04.917Z,96519.41
2022-10-10T14:17:31.730Z,96519.34
2022-10-10T14:19:58.389Z,96528.81
2022-10-10T14:22:25.034Z,96528.38
2022-10-10T14:24:51.623Z,96522.72
2022-10-10T14:27:25.027Z,96518.91
2022-10-10T14:29:53.356Z,96524.97
2022-10-10T14:32:20.740Z,96520.56
2022-10-10T14:34:47.851Z,96527.59
2022-10-10T14:37:19.971Z,96525.81
2022-10-10T14:39:47.391Z,96528.63
2022-10-10T14:42:15.612Z,96519.91
2022-10-10T14:44:42.291Z,96522.88
2022-10-10T14:47:20.732Z,96522.19
2022-10-10T14:49:48.067Z,96525.81
2022-10-10T14:52:15.741Z,96524.53
2022-10-10T14:54:42.432Z,96529.16
2022-10-10T14:57:12.182Z,96530.28
2022-10-10T14:59:48.166Z,96532.91
2022-10-10T15:02:20.957Z,96531.16
2022-10-10T15:04:47.792Z,96529.47
2022-10-10T15:07:15.325Z,96537.16
2022-10-10T15:10:11.188Z,96531.97
2022-10-10T15:12:36.029Z,96529.34
2022-10-10T15:15:03.872Z,96527.34
2022-10-10T15:17:33.786Z,96534.97
2022-10-10T15:20:01.851Z,96534.25
2022-10-10T15:22:30.335Z,96532.69
2022-10-10T15:24:57.230Z,96546.00
2022-10-10T15:27:23.974Z,96542.97
2022-10-10T15:29:50.697Z,96549.72
2022-10-10T15:32:17.378Z,96539.25
2022-10-10T15:34:44.005Z,96540.63
2022-10-10T15:37:10.756Z,96545.25
2022-10-10T15:39:37.805Z,96541.00
2022-10-10T15:42:12.716Z,96546.28
2022-10-10T15:44:46.275Z,96556.03
2022-10-10T15:47:17.474Z,96559.66
2022-10-10T15:49:44.231Z,96562.66
2022-10-10T15:52:11.228Z,96561.56
2022-10-10T15:54:37.935Z,96560.72
2022-10-10T15:57:04.988Z,96563.13
2022-10-10T15:59:32.158Z,96559.84
2022-10-10T16:01:58.915Z,96567.75
2022-10-10T16:04:26.585Z,96560.47
2022-10-10T16:07:19.341Z,96560.34
2022-10-10T16:09:41.099Z,96555.50
2022-10-10T16:12:07.910Z,96551.84
2022-10-10T16:14:35.013Z,96559.84
2022-10-10T16:17:01.804Z,96554.88
2022-10-10T16:19:28.723Z,96558.91
2022-10-10T16:21:55.400Z,96558.81
2022-10-10T16:24:22.128Z,96565.34
2022-10-10T16:26:48.861Z,96556.00
2022-10-10T16:29:18.591Z,96557.88
2022-10-10T16:31:45.610Z,96556.28
2022-10-10T16:34:15.211Z,96553.13
2022-10-10T16:36:41.882Z,96553.16
2022-10-10T16:39:08.591Z,96562.41
2022-10-10T16:41:47.595Z,96558.91
2022-10-10T16:44:15.660Z,96556.59
2022-10-10T16:46:42.421Z,96561.44
2022-10-10T16:49:11.807Z,96559.81
2022-10-10T16:51:38.535Z,96567.16
2022-10-10T16:54:06.001Z,96568.69
2022-10-10T16:56:33.135Z,96569.88
2022-10-10T16:59:00.615Z,96577.56
2022-10-10T17:01:27.873Z,96576.41
2022-10-10T17:03:55.093Z,96575.09
2022-10-10T17:06:23.408Z,96574.59
2022-10-10T17:08:52.732Z,96581.47
2022-10-10T17:11:21.593Z,96569.81
2022-10-10T17:13:49.002Z,96578.50
2022-10-10T17:17:07.110Z,96577.50
2022-10-10T17:19:05.685Z,96582.34
2022-10-10T17:21:32.799Z,96580.19
2022-10-10T17:23:59.473Z,96582.34
2022-10-10T17:26:27.998Z,96573.69
2022-10-10T17:28:56.562Z,96581.03
2022-10-10T17:31:24.517Z,96585.84
2022-10-10T17:33:54.277Z,96600.25
2022-10-10T17:36:23.886Z,96590.03
2022-10-10T17:38:51.038Z,96593.88
2022-10-10T17:41:18.625Z,96597.41
2022-10-10T17:43:45.947Z,96597.88
2022-10-10T17:46:34.240Z,96592.56
2022-10-10T17:49:04.849Z,96585.41
2022-10-10T17:51:31.541Z,96593.25
2022-10-10T17:54:02.937Z,96593.25
2022-10-10T17:56:29.828Z,96598.59
2022-10-10T17:58:56.559Z,96602.25
2022-10-10T18:01:23.333Z,96602.59
2022-10-10T18:03:50.163Z,96600.91
2022-10-10T18:06:21.736Z,96599.25
2022-10-10T18:08:50.293Z,96599.25
2022-10-10T18:11:20.035Z,96599.59
2022-10-10T18:13:47.323Z,96601.25
2022-10-10T18:16:17.188Z,96609.09
2022-10-10T18:18:50.389Z,96598.41
2022-10-10T18:21:29.632Z,96597.56
2022-10-10T18:23:56.680Z,96602.41
2022-10-10T18:26:26.678Z,96602.59
2022-10-10T18:28:55.901Z,96599.59
2022-10-10T18:31:33.351Z,96602.41
2022-10-10T18:34:01.058Z,96610.91
2022-10-10T18:36:30.949Z,96609.91
2022-10-10T18:38:59.521Z,96609.75
2022-10-10T18:41:32.845Z,96610.25
2022-10-10T18:44:04.707Z,96615.44
2022-10-10T18:46:32.155Z,96614.44
2022-10-10T18:48:59.954Z,96613.56
2022-10-10T18:51:29.710Z,96608.41
2022-10-10T18:54:07.914Z,96614.59
2022-10-10T18:56:37.135Z,96612.25
2022-10-10T18:59:06.474Z,96624.09
2022-10-10T19:01:36.470Z,96618.44
2022-10-10T19:04:04.993Z,96619.25
2022-10-10T19:06:32.167Z,96610.75
2022-10-10T19:08:59.980Z,96610.25
2022-10-10T19:11:35.336Z,96603.59
2022-10-10T19:14:04.246Z,96598.41
2022-10-10T19:16:31.908Z,96601.22
2022-10-10T19:18:59.991Z,96603.06
2022-10-10T19:21:33.276Z,96601.72
2022-10-10T19:24:01.353Z,96606.38
2022-10-10T19:26:33.350Z,96605.72
2022-10-10T19:29:06.504Z,96597.22
2022-10-10T19:31:33.692Z,96602.69
2022-10-10T19:34:00.761Z,96605.53
2022-10-10T19:36:27.881Z,96600.19
2022-10-10T19:38:55.746Z,96603.69
2022-10-10T19:41:22.644Z,96601.88
2022-10-10T19:43:52.289Z,96597.69
2022-10-10T19:46:22.203Z,96599.84
2022-10-10T19:48:50.480Z,96598.50
2022-10-10T19:51:19.379Z,96599.00
2022-10-10T19:53:46.536Z,96598.16
2022-10-10T19:56:16.388Z,96601.16
2022-10-10T19:58:43.281Z,96600.50
2022-10-10T20:01:12.882Z,96607.13
2022-10-10T20:03:39.891Z,96605.47
2022-10-10T20:06:07.159Z,96604.63
2022-10-10T20:08:34.494Z,96608.44
2022-10-10T20:11:01.278Z,96604.97
2022-10-10T20:13:27.992Z,96599.78
2022-10-10T20:16:00.098Z,96600.97
2022-10-10T20:18:27.204Z,96603.63
2022-10-10T20:20:53.865Z,96600.44
2022-10-10T20:23:23.736Z,96600.59
2022-10-10T20:25:51.172Z,96608.59
2022-10-10T20:28:19.217Z,96614.25
2022-10-10T20:30:50.978Z,96607.94
2022-10-10T20:33:19.451Z,96611.06
2022-10-10T20:35:48.545Z,96610.25
2022-10-10T20:38:16.872Z,96617.41
2022-10-10T20:40:44.732Z,96611.75
2022-10-10T20:43:12.449Z,96625.72
2022-10-10T20:45:40.160Z,96624.03
2022-10-10T20:48:07.737Z,96625.06
2022-10-10T20:50:36.216Z,96630.69
2022-10-10T20:53:02.866Z,96633.22
2022-10-10T20:55:29.590Z,96634.88
2022-10-10T20:57:56.274Z,96642.38
2022-10-10T21:00:22.979Z,96640.53
2022-10-10T21:02:49.778Z,96638.84
2022-10-10T21:05:17.179Z,96645.03
2022-10-10T21:07:45.917Z,96637.03
2022-10-10T21:10:12.639Z,96640.38
2022-10-10T21:12:39.292Z,96630.56
2022-10-10T21:15:06.479Z,96627.91
2022-10-10T21:17:33.138Z,96623.19
2022-10-10T21:19:59.909Z,96632.19
2022-10-10T21:22:26.511Z,96624.19
2022-10-10T21:24:53.248Z,96628.84
2022-10-10T21:27:19.849Z,96620.00
2022-10-10T21:29:46.549Z,96628.00
2022-10-10T21:32:13.161Z,96617.34
2022-10-10T21:34:39.828Z,96616.84
2022-10-10T21:37:06.626Z,96618.00
2022-10-10T21:39:33.370Z,96619.97
2022-10-10T21:41:59.968Z,96614.16
2022-10-10T21:44:26.677Z,96628.47
2022-10-10T21:46:53.312Z,96628.47
2022-10-10T21:49:20.013Z,96627.94
2022-10-10T21:51:46.809Z,96626.94
2022-10-10T21:54:13.908Z,96628.09
2022-10-10T21:56:40.917Z,96626.59
2022-10-10T21:59:08.059Z,96622.41
2022-10-10T22:01:34.794Z,96629.72
2022-10-10T22:04:02.491Z,96633.22
2022-10-10T22:06:30.138Z,96637.19
2022-10-10T22:08:58.939Z,96632.19
2022-10-10T22:11:27.607Z,96625.81
2022-10-10T22:13:54.821Z,96627.81
2022-10-10T22:16:21.666Z,96626.94
2022-10-10T22:18:52.513Z,96625.75
2022-10-10T22:21:19.152Z,96618.25
2022-10-10T22:23:45.871Z,96628.22
2022-10-10T22:26:14.821Z,96633.84
2022-10-10T22:28:41.651Z,96632.34
2022-10-10T22:31:10.114Z,96624.13
2022-10-10T22:33:36.830Z,96622.63
2022-10-10T22:36:05.065Z,96622.94
2022-10-10T22:38:32.863Z,96615.44
2022-10-10T22:40:59.661Z,96619.53
2022-10-10T22:43:27.312Z,96623.34
2022-10-10T22:45:54.599Z,96619.19
2022-10-10T22:48:21.296Z,96617.19
2022-10-10T22:50:48.007Z,96614.53
2022-10-10T22:53:14.714Z,96617.19
2022-10-10T22:55:41.624Z,96618.16
2022-10-10T22:58:09.159Z,96615.50
2022-10-10T23:00:35.933Z,96605.19
2022-10-10T23:03:02.599Z,96608.00
2022-10-10T23:05:29.312Z,96608.00
2022-10-10T23:07:55.971Z,96608.53
2022-10-10T23:10:22.701Z,96605.50
2022-10-10T23:12:49.340Z,96603.00
2022-10-10T23:15:16.033Z,96596.97
2022-10-10T23:17:42.751Z,96602.63
2022-10-10T23:20:09.888Z,96593.78
2022-10-10T23:22:36.578Z,96597.47
2022-10-10T23:25:03.892Z,96592.44
2022-10-10T23:27:30.560Z,96594.94
2022-10-10T23:29:57.282Z,96588.94
2022-10-10T23:32:26.815Z,96594.25
2022-10-10T23:34:53.471Z,96590.78
2022-10-10T23:37:20.118Z,96592.13
2022-10-10T23:39:46.839Z,96595.25
2022-10-10T23:42:13.486Z,96591.75
2022-10-10T23:44:40.256Z,96598.06
2022-10-10T23:47:06.920Z,96599.03
2022-10-10T23:49:33.675Z,96597.41
2022-10-10T23:52:00.315Z,96588.72
2022-10-10T23:54:26.976Z,96599.03
2022-10-10T23:56:53.693Z,96594.75
2022-10-10T23:59:20.416Z,96599.38
